createdAt,value
2018-11-26T00:00:16.816Z,33.1
2018-11-26T00:01:05.515Z,33.1
2018-11-26T00:01:57.233Z,33.1
2018-11-26T00:02:47.566Z,33.1
2018-11-26T00:03:37.678Z,33.1
2018-11-26T00:04:27.163Z,33.1
2018-11-26T00:05:17.177Z,33.1
2018-11-26T00:06:07.520Z,33.1
2018-11-26T00:06:57.327Z,33.1
2018-11-26T00:25:08.964Z,32.9
2018-11-26T00:25:59.286Z,33
2018-11-26T00:26:48.234Z,32.9
2018-11-26T00:27:39.680Z,33
2018-11-26T00:28:29.213Z,32.9
2018-11-26T00:29:18.961Z,32.9
2018-11-26T00:30:09.918Z,32.9
2018-11-26T00:31:00.146Z,32.9
2018-11-26T00:31:50.220Z,32.9
2018-11-26T00:32:40.303Z,32.9
2018-11-26T00:33:29.801Z,32.9
2018-11-26T00:34:19.867Z,32.9
2018-11-26T00:35:10.189Z,32.9
2018-11-26T00:35:59.418Z,32.9
2018-11-26T00:36:50.537Z,32.9
2018-11-26T00:37:40.050Z,32.9
2018-11-26T00:38:30.683Z,32.9
2018-11-26T00:39:18.843Z,32.9
2018-11-26T00:40:10.246Z,32.9
2018-11-26T00:41:00.313Z,32.9
2018-11-26T00:41:50.130Z,32.9
2018-11-26T00:42:40.197Z,32.9
2018-11-26T00:43:30.502Z,32.9
2018-11-26T00:44:19.997Z,32.9
2018-11-26T00:45:10.927Z,32.9
2018-11-26T00:46:00.360Z,32.9
2018-11-26T00:46:50.718Z,32.9
2018-11-26T00:47:40.803Z,32.8
2018-11-26T00:48:31.185Z,32.8
2018-11-26T00:49:21.200Z,32.8
2018-11-26T00:50:12.047Z,32.8
2018-11-26T00:51:01.307Z,32.8
2018-11-26T00:51:51.369Z,32.8
2018-11-26T00:52:40.870Z,32.8
2018-11-26T00:53:31.261Z,32.8
2018-11-26T00:54:20.987Z,32.8
2018-11-26T00:55:11.374Z,32.8
2018-11-26T00:56:01.679Z,32.8
2018-11-26T00:56:51.439Z,32.8
2018-11-26T00:57:41.759Z,32.8
2018-11-26T00:58:31.806Z,32.8
2018-11-26T00:59:21.091Z,32.8
2018-11-26T01:00:12.017Z,32.8
2018-11-26T01:01:02.349Z,32.8
2018-11-26T01:01:51.049Z,32.8
2018-11-26T01:02:42.356Z,32.8
2018-11-26T01:03:32.189Z,32.8
2018-11-26T01:04:21.963Z,32.8
2018-11-26T01:05:11.768Z,32.8
2018-11-26T01:06:02.133Z,32.8
2018-11-26T01:06:51.922Z,32.8
2018-11-26T01:07:41.661Z,32.7
2018-11-26T01:08:32.269Z,32.7
2018-11-26T01:09:22.611Z,32.8
2018-11-26T01:10:12.501Z,32.7
2018-11-26T01:11:02.996Z,32.7
2018-11-26T01:11:52.479Z,32.7
2018-11-26T01:12:42.275Z,32.7
2018-11-26T01:13:32.331Z,32.7
2018-11-26T01:14:22.148Z,32.7
2018-11-26T01:15:12.471Z,32.7
2018-11-26T01:16:03.345Z,32.7
2018-11-26T01:16:52.870Z,32.7
2018-11-26T01:17:42.905Z,32.7
2018-11-26T01:18:33.235Z,32.6
2018-11-26T01:19:23.033Z,32.7
2018-11-26T01:20:13.053Z,32.7
2018-11-26T01:21:03.732Z,32.7
2018-11-26T01:21:52.930Z,32.6
2018-11-26T01:22:43.275Z,32.6
2018-11-26T01:23:33.045Z,32.6
2018-11-26T01:24:23.082Z,32.6
2018-11-26T01:25:13.510Z,32.6
2018-11-26T01:26:03.513Z,32.6
2018-11-26T01:26:53.815Z,32.6
2018-11-26T01:27:43.122Z,32.6
2018-11-26T01:28:34.204Z,32.6
2018-11-26T01:29:23.464Z,32.6
2018-11-26T01:30:12.962Z,32.6
2018-11-26T01:31:03.562Z,32.6
2018-11-26T01:31:53.642Z,32.6
2018-11-26T01:32:43.746Z,32.6
2018-11-26T01:33:34.859Z,32.6
2018-11-26T01:34:23.812Z,32.6
2018-11-26T01:35:14.404Z,32.6
2018-11-26T01:36:03.977Z,32.6
2018-11-26T01:36:53.434Z,32.6
2018-11-26T01:37:44.579Z,32.6
2018-11-26T01:38:34.157Z,32.6
2018-11-26T01:39:24.489Z,32.6
2018-11-26T01:40:14.524Z,32.5
2018-11-26T01:41:04.618Z,32.6
2018-11-26T01:41:54.051Z,32.6
2018-11-26T01:42:44.134Z,32.5
2018-11-26T01:43:35.016Z,32.5
2018-11-26T01:44:25.588Z,32.6
2018-11-26T01:45:14.811Z,32.5
2018-11-26T01:46:05.467Z,32.6
2018-11-26T01:46:55.024Z,32.5
2018-11-26T01:47:45.043Z,32.5
2018-11-26T01:48:35.083Z,32.5
2018-11-26T01:49:25.226Z,32.5
2018-11-26T01:50:14.942Z,32.5
2018-11-26T01:51:05.539Z,32.5
2018-11-26T01:51:55.317Z,32.5
2018-11-26T01:52:45.921Z,32.5
2018-11-26T01:53:34.888Z,32.4
2018-11-26T01:54:26.022Z,32.4
2018-11-26T01:55:15.003Z,32.4
2018-11-26T01:56:05.586Z,32.4
2018-11-26T01:56:55.688Z,32.4
2018-11-26T01:57:46.020Z,32.4
2018-11-26T01:58:36.091Z,32.4
2018-11-26T01:59:25.850Z,32.5
2018-11-26T02:00:15.923Z,32.6
2018-11-26T02:01:06.050Z,32.8
2018-11-26T02:01:55.772Z,32.9
2018-11-26T02:02:46.372Z,33.1
2018-11-26T02:03:36.693Z,33.2
2018-11-26T02:04:27.342Z,33.4
2018-11-26T02:05:16.283Z,33.5
2018-11-26T02:06:06.599Z,33.7
2018-11-26T02:06:57.217Z,33.8
2018-11-26T02:07:46.467Z,34
2018-11-26T02:08:35.142Z,34.1
2018-11-26T02:09:26.842Z,34.2
2018-11-26T02:10:15.588Z,34.4
2018-11-26T02:11:06.693Z,34.5
2018-11-26T02:11:56.741Z,34.6
2018-11-26T02:12:46.886Z,34.8
2018-11-26T02:13:37.382Z,34.9
2018-11-26T02:14:27.419Z,35
2018-11-26T02:15:17.244Z,35.1
2018-11-26T02:16:07.094Z,35.3
2018-11-26T02:16:56.821Z,35.4
2018-11-26T02:17:46.911Z,35.5
2018-11-26T02:18:35.847Z,35.6
2018-11-26T02:19:27.265Z,35.8
2018-11-26T02:20:17.060Z,35.9
2018-11-26T02:21:07.109Z,36
2018-11-26T02:21:57.176Z,36.1
2018-11-26T02:22:47.806Z,36.2
2018-11-26T02:23:37.561Z,36.3
2018-11-26T02:24:27.881Z,36.4
2018-11-26T02:25:17.956Z,36.6
2018-11-26T02:26:07.734Z,36.7
2018-11-26T02:26:58.094Z,36.8
2018-11-26T02:27:48.406Z,36.9
2018-11-26T02:28:38.181Z,37.1
2018-11-26T02:29:28.246Z,37.2
2018-11-26T02:30:18.031Z,37.3
2018-11-26T02:31:07.863Z,37.4
2018-11-26T02:31:58.438Z,37.6
2018-11-26T02:32:48.005Z,37.6
2018-11-26T02:33:38.573Z,37.8
2018-11-26T02:34:27.495Z,37.9
2018-11-26T02:35:18.093Z,38.1
2018-11-26T02:36:08.451Z,38.2
2018-11-26T02:36:58.493Z,38.4
2018-11-26T02:37:48.308Z,38.5
2018-11-26T02:38:38.675Z,38.6
2018-11-26T02:39:28.442Z,38.8
2018-11-26T02:40:17.960Z,38.9
2018-11-26T02:41:08.328Z,38.9
2018-11-26T02:41:59.507Z,39.1
2018-11-26T02:42:48.708Z,39.1
2018-11-26T02:43:38.992Z,39.3
2018-11-26T02:44:28.746Z,39.3
2018-11-26T02:45:19.085Z,39.4
2018-11-26T02:46:09.120Z,39.6
2018-11-26T02:46:59.768Z,39.8
2018-11-26T02:47:48.722Z,39.9
2018-11-26T02:48:39.927Z,40.1
2018-11-26T02:49:29.932Z,40.1
2018-11-26T02:50:19.739Z,40.3
2018-11-26T02:51:10.584Z,40.4
2018-11-26T02:52:00.156Z,40.4
2018-11-26T02:52:49.367Z,40.6
2018-11-26T02:53:39.136Z,40.7
2018-11-26T02:54:29.482Z,40.8
2018-11-26T02:55:20.140Z,40.9
2018-11-26T02:56:10.124Z,41
2018-11-26T02:56:59.894Z,41.1
2018-11-26T02:57:50.009Z,41.3
2018-11-26T02:58:40.599Z,41.4
2018-11-26T02:59:30.934Z,41.5
2018-11-26T03:00:19.677Z,41.6
2018-11-26T03:01:10.289Z,41.8
2018-11-26T03:02:00.506Z,41.8
2018-11-26T03:02:49.812Z,41.9
2018-11-26T03:03:39.851Z,42.1
2018-11-26T03:04:30.216Z,42.2
2018-11-26T03:05:20.521Z,42.3
2018-11-26T03:06:11.709Z,42.4
2018-11-26T03:07:00.873Z,42.6
2018-11-26T03:07:50.961Z,42.7
2018-11-26T03:08:41.063Z,42.8
2018-11-26T03:09:30.811Z,42.9
2018-11-26T03:10:21.151Z,43.1
2018-11-26T03:11:11.232Z,43.2
2018-11-26T03:12:00.714Z,43.3
2018-11-26T03:12:50.803Z,43.4
2018-11-26T03:13:41.360Z,43.5
2018-11-26T03:14:31.148Z,43.7
2018-11-26T03:15:21.785Z,43.8
2018-11-26T03:16:11.811Z,43.9
2018-11-26T03:17:01.577Z,44.1
2018-11-26T03:17:51.194Z,44.1
2018-11-26T03:18:41.205Z,44.3
2018-11-26T03:19:31.005Z,44.4
2018-11-26T03:20:21.341Z,44.5
2018-11-26T03:21:12.757Z,44.6
2018-11-26T03:22:02.023Z,44.8
2018-11-26T03:22:52.337Z,44.8
2018-11-26T03:23:41.826Z,44.9
2018-11-26T03:24:32.665Z,45.1
2018-11-26T03:25:22.232Z,45.2
2018-11-26T03:26:12.768Z,45.3
2018-11-26T03:27:02.343Z,45.4
2018-11-26T03:27:51.833Z,45.6
2018-11-26T03:28:42.149Z,45.6
2018-11-26T03:29:31.430Z,45.6
2018-11-26T03:30:22.650Z,45.6
2018-11-26T03:31:12.812Z,45.7
2018-11-26T03:32:02.465Z,45.7
2018-11-26T03:32:52.836Z,45.8
2018-11-26T03:33:43.087Z,45.8
2018-11-26T03:34:32.860Z,45.8
2018-11-26T03:35:22.427Z,45.8
2018-11-26T03:36:12.681Z,45.8
2018-11-26T03:37:03.096Z,45.8
2018-11-26T03:37:52.806Z,45.8
2018-11-26T03:38:42.858Z,45.8
2018-11-26T03:39:32.946Z,45.8
2018-11-26T03:40:23.092Z,45.8
2018-11-26T03:41:12.544Z,45.9
2018-11-26T03:42:03.958Z,45.9
2018-11-26T03:42:52.952Z,45.9
2018-11-26T03:43:43.482Z,45.9
2018-11-26T03:44:32.746Z,45.9
2018-11-26T03:45:24.231Z,45.9
2018-11-26T03:46:13.746Z,45.9
2018-11-26T03:47:03.176Z,45.9
2018-11-26T03:47:53.241Z,45.9
2018-11-26T03:48:43.588Z,45.9
2018-11-26T03:49:34.178Z,45.9
2018-11-26T03:50:23.978Z,45.9
2018-11-26T03:51:14.378Z,45.9
2018-11-26T03:52:04.348Z,45.9
2018-11-26T03:52:52.989Z,45.9
2018-11-26T03:53:43.937Z,45.9
2018-11-26T03:54:33.740Z,45.9
2018-11-26T03:55:23.775Z,45.9
2018-11-26T03:56:14.379Z,45.9
2018-11-26T03:57:04.730Z,46
2018-11-26T03:57:54.519Z,45.9
2018-11-26T03:58:44.598Z,46
2018-11-26T03:59:35.128Z,46
2018-11-26T04:00:23.849Z,46
2018-11-26T04:01:14.206Z,46
2018-11-26T04:02:05.119Z,46
2018-11-26T04:02:55.145Z,46
2018-11-26T04:03:45.192Z,46
2018-11-26T04:04:35.003Z,46
2018-11-26T04:05:25.592Z,46
2018-11-26T04:06:14.555Z,46
2018-11-26T04:07:04.560Z,46
2018-11-26T04:07:54.637Z,46
2018-11-26T04:08:44.719Z,46
2018-11-26T04:09:34.801Z,46
2018-11-26T04:10:24.832Z,46
2018-11-26T04:11:15.712Z,46
2018-11-26T04:12:04.636Z,46
2018-11-26T04:12:56.101Z,46
2018-11-26T04:13:45.302Z,45.9
2018-11-26T04:14:35.688Z,45.9
2018-11-26T04:15:26.014Z,46
2018-11-26T04:16:15.226Z,46
2018-11-26T04:17:04.733Z,46
2018-11-26T04:17:55.616Z,46
2018-11-26T04:18:44.924Z,46
2018-11-26T04:19:35.764Z,45.9
2018-11-26T04:20:26.086Z,46
2018-11-26T04:21:16.144Z,45.9
2018-11-26T04:22:05.435Z,46
2018-11-26T04:22:56.066Z,46
2018-11-26T04:23:45.496Z,46
2018-11-26T04:24:36.363Z,46
2018-11-26T04:25:27.072Z,46
2018-11-26T04:26:15.970Z,46
2018-11-26T04:27:06.828Z,46
2018-11-26T04:27:56.351Z,46
2018-11-26T04:28:46.941Z,45.9
2018-11-26T04:29:36.743Z,46
2018-11-26T04:30:26.828Z,45.9
2018-11-26T04:31:16.295Z,46
2018-11-26T04:32:06.078Z,46
2018-11-26T04:32:56.200Z,46
2018-11-26T04:33:47.022Z,46
2018-11-26T04:34:37.060Z,46
2018-11-26T04:35:27.125Z,45.9
2018-11-26T04:36:16.673Z,45.9
2018-11-26T04:54:20.023Z,45.8
2018-11-26T04:55:08.509Z,45.8
2018-11-26T04:56:00.187Z,45.8
2018-11-26T04:56:49.704Z,45.8
2018-11-26T04:57:46.694Z,45.8
2018-11-26T04:58:30.384Z,45.8
2018-11-26T04:59:20.485Z,45.7
2018-11-26T05:00:10.501Z,45.7
2018-11-26T05:00:59.474Z,45.7
2018-11-26T05:01:50.608Z,45.7
2018-11-26T05:02:40.420Z,45.7
2018-11-26T05:03:29.093Z,45.7
2018-11-26T05:04:20.255Z,45.6
2018-11-26T05:05:10.067Z,45.6
2018-11-26T05:06:00.386Z,45.6
2018-11-26T05:06:50.418Z,45.6
2018-11-26T05:07:39.696Z,45.6
2018-11-26T05:08:30.830Z,45.6
2018-11-26T05:09:20.575Z,45.6
2018-11-26T05:10:10.966Z,45.6
2018-11-26T05:11:01.576Z,45.6
2018-11-26T05:11:50.791Z,45.6
2018-11-26T05:12:41.135Z,45.6
2018-11-26T05:13:30.590Z,45.6
2018-11-26T05:14:20.375Z,45.6
2018-11-26T05:15:10.452Z,45.6
2018-11-26T05:16:01.332Z,45.5
2018-11-26T05:16:50.860Z,45.5
2018-11-26T05:17:41.171Z,45.5
2018-11-26T05:18:30.452Z,45.5
2018-11-26T05:19:21.012Z,45.5
2018-11-26T05:20:11.377Z,45.4
2018-11-26T05:21:01.410Z,45.4
2018-11-26T05:21:51.693Z,45.4
2018-11-26T05:22:41.564Z,45.5
2018-11-26T05:23:31.599Z,45.5
2018-11-26T05:24:21.102Z,45.5
2018-11-26T05:25:12.005Z,45.4
2018-11-26T05:26:02.073Z,45.5
2018-11-26T05:26:52.337Z,45.4
2018-11-26T05:27:42.173Z,45.4
2018-11-26T05:28:31.944Z,45.4
2018-11-26T05:29:23.084Z,45.4
2018-11-26T05:30:12.068Z,45.4
2018-11-26T05:31:02.151Z,45.4
2018-11-26T05:31:52.144Z,45.4
2018-11-26T05:32:42.554Z,45.4
2018-11-26T05:33:32.262Z,45.3
2018-11-26T05:34:23.158Z,45.3
2018-11-26T05:35:12.407Z,45.3
2018-11-26T05:36:02.191Z,45.3
2018-11-26T05:36:52.252Z,45.3
2018-11-26T05:37:42.582Z,45.3
2018-11-26T05:38:32.613Z,45.3
2018-11-26T05:39:22.505Z,45.3
2018-11-26T05:40:12.767Z,45.3
2018-11-26T05:41:02.537Z,45.2
2018-11-26T05:41:52.850Z,45.2
2018-11-26T05:42:42.380Z,45.2
2018-11-26T05:43:32.977Z,45.1
2018-11-26T05:44:23.287Z,45.2
2018-11-26T05:45:13.371Z,45.1
2018-11-26T05:46:02.892Z,45.1
2018-11-26T05:46:53.488Z,45.1
2018-11-26T05:47:43.029Z,45.1
2018-11-26T05:48:33.047Z,45.1
2018-11-26T05:49:24.769Z,45
2018-11-26T05:50:13.182Z,44.9
2018-11-26T05:51:03.517Z,44.8
2018-11-26T05:51:53.848Z,44.6
2018-11-26T05:52:43.394Z,44.3
2018-11-26T05:53:33.739Z,44.1
2018-11-26T05:54:24.319Z,43.7
2018-11-26T05:55:13.791Z,43.3
2018-11-26T05:56:04.131Z,42.7
2018-11-26T05:56:53.641Z,42.1
2018-11-26T05:57:43.758Z,41.4
2018-11-26T05:58:34.639Z,40.6
2018-11-26T05:59:23.591Z,39.9
2018-11-26T06:00:13.886Z,39
2018-11-26T06:01:03.927Z,38
2018-11-26T06:01:54.536Z,36.9
2018-11-26T06:02:44.320Z,35.8
2018-11-26T06:03:34.113Z,34.6
2018-11-26T06:04:24.708Z,33.6
2018-11-26T06:05:15.320Z,32.5
2018-11-26T06:06:04.298Z,31.6
2018-11-26T06:06:54.881Z,30.8
2018-11-26T06:07:44.653Z,29.9
2018-11-26T06:08:33.911Z,29.3
2018-11-26T06:09:24.790Z,28.6
2018-11-26T06:10:14.856Z,28.1
2018-11-26T06:11:04.358Z,27.6
2018-11-26T06:11:54.435Z,27.2
2018-11-26T06:12:44.763Z,26.8
2018-11-26T06:13:34.817Z,26.5
2018-11-26T06:14:25.413Z,26.3
2018-11-26T06:15:15.747Z,25.9
2018-11-26T06:16:05.308Z,25.7
2018-11-26T06:16:57.985Z,25.5
2018-11-26T06:17:45.972Z,25.3
2018-11-26T06:18:36.005Z,25.1
2018-11-26T06:19:25.791Z,24.9
2018-11-26T06:20:14.475Z,24.8
2018-11-26T06:21:05.927Z,24.6
2018-11-26T06:21:55.929Z,24.4
2018-11-26T06:22:45.476Z,24.3
2018-11-26T06:23:35.835Z,24.2
2018-11-26T06:24:25.014Z,24.1
2018-11-26T06:25:17.061Z,23.9
2018-11-26T06:26:05.684Z,23.9
2018-11-26T06:26:56.272Z,23.8
2018-11-26T06:27:46.089Z,23.6
2018-11-26T06:28:36.698Z,23.6
2018-11-26T06:29:25.731Z,23.4
2018-11-26T06:30:16.253Z,23.4
2018-11-26T06:31:06.047Z,23.3
2018-11-26T06:31:56.116Z,23.3
2018-11-26T06:32:47.226Z,23.2
2018-11-26T06:33:36.528Z,23.1
2018-11-26T06:34:25.728Z,23
2018-11-26T06:35:16.361Z,22.9
2018-11-26T06:36:06.686Z,22.9
2018-11-26T06:36:56.428Z,22.8
2018-11-26T06:37:47.064Z,22.8
2018-11-26T06:38:37.391Z,22.8
2018-11-26T06:39:26.340Z,22.7
2018-11-26T06:40:16.719Z,22.6
2018-11-26T06:41:07.301Z,22.6
2018-11-26T06:41:57.571Z,22.5
2018-11-26T06:42:46.871Z,22.4
2018-11-26T06:43:36.955Z,22.4
2018-11-26T06:44:27.547Z,22.3
2018-11-26T06:45:17.345Z,22.3
2018-11-26T06:46:07.605Z,22.3
2018-11-26T06:46:57.673Z,22.2
2018-11-26T06:47:48.040Z,22.2
2018-11-26T06:48:37.263Z,22.1
2018-11-26T06:49:27.340Z,22.1
2018-11-26T06:50:17.695Z,22.1
2018-11-26T06:51:07.449Z,22
2018-11-26T06:51:58.298Z,22
2018-11-26T06:52:48.113Z,21.9
2018-11-26T06:53:38.388Z,21.9
2018-11-26T06:54:27.658Z,21.9
2018-11-26T06:55:18.287Z,21.9
2018-11-26T06:56:08.015Z,21.9
2018-11-26T06:56:58.392Z,21.8
2018-11-26T06:57:47.617Z,21.8
2018-11-26T06:58:37.942Z,21.8
2018-11-26T06:59:27.527Z,21.8
2018-11-26T07:00:18.667Z,21.8
2018-11-26T07:01:08.392Z,21.8
2018-11-26T07:01:59.314Z,21.7
2018-11-26T07:02:48.806Z,21.7
2018-11-26T07:03:39.123Z,21.7
2018-11-26T07:04:28.682Z,21.7
2018-11-26T07:05:18.747Z,21.6
2018-11-26T07:06:08.748Z,21.6
2018-11-26T07:06:58.848Z,21.6
2018-11-26T07:07:48.865Z,21.6
2018-11-26T07:08:38.650Z,21.6
2018-11-26T07:09:29.305Z,21.6
2018-11-26T07:10:19.060Z,21.6
2018-11-26T07:11:09.315Z,21.5
2018-11-26T07:11:58.873Z,21.5
2018-11-26T07:12:49.225Z,21.5
2018-11-26T07:13:39.562Z,21.5
2018-11-26T07:14:29.320Z,21.4
2018-11-26T07:15:19.647Z,21.4
2018-11-26T07:16:08.895Z,21.4
2018-11-26T07:16:59.752Z,21.4
2018-11-26T07:17:49.892Z,21.4
2018-11-26T07:18:39.623Z,21.4
2018-11-26T07:19:29.407Z,21.4
2018-11-26T07:20:19.775Z,21.4
2018-11-26T07:21:10.327Z,21.4
2018-11-26T07:21:59.827Z,21.4
2018-11-26T07:22:50.214Z,21.4
2018-11-26T07:23:39.972Z,21.4
2018-11-26T07:24:30.577Z,21.4
2018-11-26T07:25:20.136Z,21.4
2018-11-26T07:26:09.899Z,21.3
2018-11-26T07:27:00.514Z,21.3
2018-11-26T07:27:50.268Z,21.3
2018-11-26T07:28:40.856Z,21.3
2018-11-26T07:29:30.932Z,21.3
2018-11-26T07:30:21.276Z,21.3
2018-11-26T07:31:10.241Z,21.3
2018-11-26T07:32:01.174Z,21.3
2018-11-26T07:32:50.904Z,21.3
2018-11-26T07:33:40.692Z,21.3
2018-11-26T07:34:31.280Z,21.3
2018-11-26T07:35:20.519Z,21.3
2018-11-26T07:36:16.356Z,21.3
2018-11-26T07:37:01.720Z,21.3
2018-11-26T07:37:51.804Z,21.3
2018-11-26T07:38:41.669Z,21.3
2018-11-26T07:39:31.606Z,21.3
2018-11-26T07:40:21.414Z,21.3
2018-11-26T07:41:10.966Z,21.3
2018-11-26T07:42:01.246Z,21.3
2018-11-26T07:42:51.860Z,21.3
2018-11-26T07:43:41.403Z,21.2
2018-11-26T07:44:31.468Z,21.2
2018-11-26T07:45:21.490Z,21.2
2018-11-26T07:46:11.543Z,21.3
2018-11-26T07:47:02.703Z,21.2
2018-11-26T07:47:52.209Z,21.2
2018-11-26T07:48:41.179Z,21.2
2018-11-26T07:49:31.791Z,21.2
2018-11-26T07:50:21.603Z,21.2
2018-11-26T07:51:11.621Z,21.2
2018-11-26T07:52:01.672Z,21.2
2018-11-26T07:52:52.018Z,21.2
2018-11-26T07:54:32.132Z,21.2
2018-11-26T08:37:04.871Z,21.2
2018-11-26T08:38:45.819Z,21.2
2018-11-26T08:40:25.918Z,21.2
2018-11-26T08:41:15.263Z,21.2
2018-11-26T08:42:05.238Z,21.2
2018-11-26T08:42:56.032Z,21.2
2018-11-26T08:43:45.606Z,21.2
2018-11-26T08:44:35.990Z,21.2
2018-11-26T08:45:26.268Z,21.2
2018-11-26T08:46:15.618Z,21.2
2018-11-26T08:47:05.842Z,21.2
2018-11-26T08:47:55.085Z,21.2
2018-11-26T08:48:45.932Z,21.2
2018-11-26T08:49:36.005Z,21.2
2018-11-26T08:50:26.320Z,21.2
2018-11-26T08:51:15.933Z,21.2
2018-11-26T08:52:05.627Z,21.2
2018-11-26T08:52:56.265Z,21.2
2018-11-26T09:08:48.649Z,21.2
2018-11-26T09:09:37.653Z,21.3
2018-11-26T09:10:27.991Z,21.3
2018-11-26T09:11:18.604Z,21.3
2018-11-26T09:12:09.231Z,21.3
2018-11-26T09:12:58.998Z,21.2
2018-11-26T09:13:48.276Z,21.2
2018-11-26T09:16:18.651Z,21.1
2018-11-26T09:17:08.426Z,21.1
2018-11-26T09:17:58.738Z,21.1
2018-11-26T09:18:49.415Z,21
2018-11-26T09:19:37.513Z,20.9
2018-11-26T09:20:29.568Z,20.9
2018-11-26T09:21:18.499Z,20.9
2018-11-26T09:22:08.785Z,20.9
2018-11-26T09:22:59.418Z,20.9
2018-11-26T09:23:49.228Z,20.9
2018-11-26T09:24:38.490Z,20.9
2018-11-26T09:25:29.021Z,20.9
2018-11-26T09:26:19.076Z,20.9
2018-11-26T09:27:14.068Z,20.9
2018-11-26T09:27:58.960Z,20.9
2018-11-26T09:28:49.595Z,20.9
2018-11-26T09:29:39.323Z,20.9
2018-11-26T09:30:29.366Z,20.8
2018-11-26T09:31:19.985Z,20.8
2018-11-26T09:32:09.485Z,20.9
2018-11-26T09:32:59.880Z,20.9
2018-11-26T09:33:49.922Z,20.9
2018-11-26T09:34:38.651Z,20.9
2018-11-26T09:35:29.749Z,20.9
2018-11-26T09:36:19.792Z,20.8
2018-11-26T09:37:09.852Z,20.8
2018-11-26T09:38:00.524Z,20.8
2018-11-26T09:38:49.962Z,20.8
2018-11-26T09:39:39.157Z,20.8
2018-11-26T09:40:30.085Z,20.8
2018-11-26T09:41:19.874Z,20.9
2018-11-26T09:42:10.763Z,20.8
2018-11-26T09:43:00.034Z,20.8
2018-11-26T09:43:50.386Z,20.8
2018-11-26T09:44:40.114Z,20.8
2018-11-26T09:45:30.707Z,20.8
2018-11-26T09:46:20.782Z,20.8
2018-11-26T09:47:09.441Z,20.8
2018-11-26T09:47:59.831Z,20.8
2018-11-26T09:48:50.660Z,20.8
2018-11-26T09:49:42.459Z,20.8
2018-11-26T09:50:30.531Z,20.8
2018-11-26T09:51:20.294Z,20.8
2018-11-26T09:52:10.907Z,20.8
2018-11-26T09:53:00.199Z,20.8
2018-11-26T09:53:51.029Z,20.8
2018-11-26T09:54:41.415Z,20.8
2018-11-26T09:55:31.390Z,20.8
2018-11-26T09:56:21.221Z,20.8
2018-11-26T09:57:11.271Z,20.8
2018-11-26T09:58:01.616Z,20.8
2018-11-26T09:58:51.361Z,20.8
2018-11-26T09:59:42.001Z,20.8
2018-11-26T10:00:31.211Z,20.8
2018-11-26T10:01:20.996Z,20.8
2018-11-26T10:02:11.875Z,20.8
2018-11-26T10:03:01.700Z,20.8
2018-11-26T10:03:51.463Z,20.9
2018-11-26T10:04:41.805Z,20.8
2018-11-26T10:05:31.017Z,20.8
2018-11-26T10:06:21.987Z,20.8
2018-11-26T10:07:11.128Z,20.8
2018-11-26T10:08:01.746Z,20.8
2018-11-26T10:08:51.814Z,20.8
2018-11-26T10:09:42.640Z,20.8
2018-11-26T10:10:31.320Z,20.8
2018-11-26T10:11:21.680Z,20.8
2018-11-26T10:12:11.795Z,20.8
2018-11-26T10:13:02.155Z,20.8
2018-11-26T10:13:51.237Z,20.8
2018-11-26T10:14:41.822Z,20.8
2018-11-26T10:15:31.765Z,20.9
2018-11-26T10:16:21.834Z,20.9
2018-11-26T10:17:12.077Z,20.9
2018-11-26T10:18:02.982Z,20.8
2018-11-26T10:18:53.134Z,20.9
2018-11-26T10:19:43.081Z,20.9
2018-11-26T10:20:32.890Z,20.8
2018-11-26T10:21:22.376Z,20.8
2018-11-26T10:22:12.949Z,20.9
2018-11-26T10:23:02.785Z,20.9
2018-11-26T10:23:53.664Z,20.9
2018-11-26T10:24:43.159Z,20.9
2018-11-26T10:25:33.244Z,20.9
2018-11-26T10:26:23.561Z,20.9
2018-11-26T10:27:13.354Z,20.9
2018-11-26T10:28:03.139Z,20.9
2018-11-26T10:28:53.481Z,20.9
2018-11-26T10:29:43.784Z,20.9
2018-11-26T10:30:33.845Z,20.9
2018-11-26T10:31:23.642Z,20.9
2018-11-26T10:32:14.653Z,20.9
2018-11-26T10:33:03.528Z,20.9
2018-11-26T10:33:53.807Z,24.2
2018-11-26T10:34:44.427Z,33.9
2018-11-26T10:35:34.201Z,35.4
2018-11-26T10:36:23.986Z,33.9
2018-11-26T10:37:14.039Z,32.8
2018-11-26T10:38:04.620Z,31.8
2018-11-26T10:38:53.885Z,30.9
2018-11-26T10:39:44.758Z,30.2
2018-11-26T10:40:34.288Z,29.6
2018-11-26T10:41:24.375Z,29.1
2018-11-26T10:42:14.681Z,28.7
2018-11-26T10:43:07.777Z,28.3
2018-11-26T10:43:54.823Z,27.9
2018-11-26T10:44:44.567Z,27.7
2018-11-26T10:45:33.820Z,27.4
2018-11-26T10:46:24.960Z,27.2
2018-11-26T10:47:15.282Z,27
2018-11-26T10:48:04.260Z,26.8
2018-11-26T10:48:55.160Z,26.6
2018-11-26T10:49:45.767Z,26.5
2018-11-26T10:50:34.704Z,26.3
2018-11-26T10:51:24.565Z,26.2
2018-11-26T10:52:15.092Z,26.1
2018-11-26T10:53:05.225Z,25.9
2018-11-26T10:53:55.482Z,25.8
2018-11-26T10:54:45.262Z,25.7
2018-11-26T10:55:35.717Z,25.6
2018-11-26T10:56:25.084Z,25.5
2018-11-26T10:57:14.904Z,25.4
2018-11-26T10:58:06.070Z,25.3
2018-11-26T10:58:55.553Z,25.3
2018-11-26T10:59:45.876Z,25.2
2018-11-26T11:00:36.275Z,25.1
2018-11-26T11:01:25.464Z,25.1
2018-11-26T11:02:16.086Z,25
2018-11-26T11:03:05.866Z,24.9
2018-11-26T11:03:56.846Z,24.8
2018-11-26T11:04:52.476Z,24.8
2018-11-26T11:05:35.716Z,24.7
2018-11-26T11:06:25.810Z,24.7
2018-11-26T11:07:16.423Z,24.6
2018-11-26T11:08:07.018Z,24.6
2018-11-26T11:08:56.259Z,24.5
2018-11-26T11:09:46.884Z,24.4
2018-11-26T11:10:36.081Z,24.4
2018-11-26T11:11:28.181Z,24.4
2018-11-26T11:12:16.202Z,24.3
2018-11-26T11:13:06.285Z,24.3
2018-11-26T11:13:56.358Z,24.2
2018-11-26T11:14:47.227Z,24.2
2018-11-26T11:15:36.988Z,24.1
2018-11-26T11:16:26.811Z,24.1
2018-11-26T11:17:17.128Z,24.1
2018-11-26T11:18:06.361Z,24.1
2018-11-26T11:18:57.278Z,24
2018-11-26T11:19:46.734Z,24
2018-11-26T11:20:37.328Z,23.9
2018-11-26T11:21:27.387Z,23.9
2018-11-26T11:22:16.398Z,23.9
2018-11-26T11:23:08.065Z,23.9
2018-11-26T11:23:57.599Z,23.8
2018-11-26T11:24:47.165Z,23.8
2018-11-26T11:25:36.944Z,23.8
2018-11-26T11:26:28.217Z,23.8
2018-11-26T11:27:17.645Z,23.7
2018-11-26T11:28:07.941Z,23.7
2018-11-26T11:28:57.717Z,23.6
2018-11-26T11:29:48.065Z,23.6
2018-11-26T11:30:37.539Z,23.6
2018-11-26T11:31:27.920Z,23.6
2018-11-26T11:32:17.667Z,23.6
2018-11-26T11:33:57.922Z,23.5
2018-11-26T11:34:48.127Z,23.4
2018-11-26T11:35:38.364Z,23.4
2018-11-26T11:36:28.689Z,23.4
2018-11-26T11:37:18.766Z,23.4
2018-11-26T11:38:08.848Z,23.4
2018-11-26T11:38:58.629Z,23.4
2018-11-26T11:39:49.036Z,23.3
2018-11-26T11:40:38.259Z,23.3
2018-11-26T11:41:34.671Z,23.3
2018-11-26T11:42:18.841Z,23.3
2018-11-26T11:43:08.735Z,23.3
2018-11-26T11:43:58.671Z,23.2
2018-11-26T11:44:49.031Z,23.2
2018-11-26T11:45:39.356Z,23.2
2018-11-26T11:46:29.758Z,23.2
2018-11-26T11:47:19.763Z,23.2
2018-11-26T11:48:09.798Z,23.1
2018-11-26T11:48:59.330Z,23.1
2018-11-26T11:49:49.635Z,23.1
2018-11-26T11:50:39.521Z,23.1
2018-11-26T11:51:30.022Z,23.1
2018-11-26T11:52:20.102Z,28.4
2018-11-26T11:53:09.872Z,35.1
2018-11-26T11:53:59.955Z,34.8
2018-11-26T11:54:49.762Z,33.2
2018-11-26T11:55:39.560Z,32.1
2018-11-26T11:56:30.467Z,31.3
2018-11-26T11:57:19.904Z,30.6
2018-11-26T11:58:10.817Z,30.1
2018-11-26T11:59:00.569Z,29.6
2018-11-26T11:59:50.912Z,29.3
2018-11-26T12:00:40.414Z,28.9
2018-11-26T12:01:30.737Z,28.6
2018-11-26T12:02:21.164Z,28.3
2018-11-26T12:03:10.887Z,28.1
2018-11-26T12:04:00.650Z,27.9
2018-11-26T12:04:50.462Z,27.7
2018-11-26T12:05:40.742Z,27.5
2018-11-26T12:06:30.849Z,27.3
2018-11-26T12:07:20.890Z,27.2
2018-11-26T12:08:10.718Z,27.1
2018-11-26T12:09:00.451Z,26.9
2018-11-26T12:09:50.696Z,26.8
2018-11-26T12:10:41.126Z,26.6
2018-11-26T12:11:30.909Z,26.6
2018-11-26T12:12:21.287Z,26.4
2018-11-26T12:13:11.281Z,26.3
2018-11-26T12:14:01.145Z,26.3
2018-11-26T12:14:50.583Z,26.2
2018-11-26T12:15:41.463Z,26.1
2018-11-26T12:16:31.533Z,26
2018-11-26T12:17:20.770Z,25.9
2018-11-26T12:18:11.071Z,25.8
2018-11-26T12:19:02.008Z,25.8
2018-11-26T12:19:51.478Z,25.7
2018-11-26T12:20:42.168Z,25.6
2018-11-26T12:21:31.325Z,25.6
2018-11-26T12:22:22.278Z,25.5
2018-11-26T12:23:12.013Z,25.4
2018-11-26T12:24:02.097Z,25.4
2018-11-26T12:24:51.833Z,25.3
2018-11-26T12:25:42.187Z,25.3
2018-11-26T12:26:32.272Z,25.2
2018-11-26T12:27:23.060Z,25.1
2018-11-26T12:28:12.387Z,25.1
2018-11-26T12:29:02.459Z,25.1
2018-11-26T12:29:51.662Z,25
2018-11-26T12:30:42.259Z,24.9
2018-11-26T12:31:31.759Z,24.9
2018-11-26T12:32:22.402Z,24.9
2018-11-26T12:33:12.432Z,24.9
2018-11-26T12:34:03.025Z,24.8
2018-11-26T12:34:53.060Z,24.8
2018-11-26T12:35:42.119Z,24.7
2018-11-26T12:36:32.657Z,24.7
2018-11-26T12:37:23.281Z,24.7
2018-11-26T12:38:13.078Z,24.6
2018-11-26T12:39:02.286Z,24.6
2018-11-26T12:39:53.696Z,24.6
2018-11-26T12:40:43.245Z,24.6
2018-11-26T12:41:33.337Z,24.5
2018-11-26T12:42:22.803Z,24.5
2018-11-26T12:43:13.425Z,24.4
2018-11-26T12:44:03.191Z,24.4
2018-11-26T12:44:54.033Z,24.4
2018-11-26T12:45:43.026Z,24.4